Chantilly, VA (20153)

6:43 PM EST on January 28, 2015 (GMT -0500)
Brookfield | Change Station
CLOSE
Current Station
Personal Weather Station
Location: Chantilly, VA
Elevation: 389 ft
Nearby Weather Stations

Elev 389 ft 38.89 °N, 77.41 °W | Updated 48 seconds ago

Clear
Clear
29.5 °F
Feels Like 26 °F
N
3.6
Wind Variable Wind from NNE
Gusts 3.6 mph

Today
High -- | Low -- °F
--% Chance of Precip.
Yesterday
High -- | Low -- °F
Precip. -- in
7:19 AM 5:26 PM
Waxing Gibbous, 69% visible
Pressure 30.29 in
Visibility 10.0 miles
Clouds Few 16000 ft
Windchill 26 °F
Dew Point 4 °F
Humidity 33%
Rainfall 0.00 in
Snow Depth Not available.
UV 0 out of 12
Pollen .30 out of 12
Air Quality Not available.
Flu Activity Not available.
METAR KIAD 282252Z 34007KT 10SM FEW160 M01/M13 A3028 RMK AO2 SLP256 T10061133 $

More Conditions Fewer Conditions

Pressure 30.29 in
Visibility 10.0 miles
Clouds Few 16000 ft
Windchill 26 °F
Dew Point 4 °F
Humidity 33%
Rainfall 0.00 in
Snow Depth Not available.
UV 0 out of 12
Pollen .30 out of 12
Air Quality Not available.
Flu Activity Not available.
METAR KIAD 282252Z 34007KT 10SM FEW160 M01/M13 A3028 RMK AO2 SLP256 T10061133 $

More Conditions Fewer Conditions

10-Day Weather Forecast

Almanac

Astronomy

Jan. 28, 2015 Rise Set
Actual Time
Civil Twilight
Nautical Twilight
Astronomical Twilight
Moon
Length of Visible Light
Length of Day
Tomorrow will be .
, % of the Moon is Illuminated

Today's Extremes

State Highs State Lows

Community

WunderPhotos

Upload Photos

1,791,298 photos uploaded!

WunderBlogs® & News

Nearby

Air Quality

  Air Quality AQ Index Pollutant
Not available.

Snow Depth

Station Depth Elevation

Earthquake Activity

City Distance Mag. Time & Date
Minimum magnitude displayed is 2.5.

Coastal Water Temperatures

Place Temperature

Nearby Weather Stations